Time;durP1;ratioP1;P1;durP2;ratioP2;P2;SDS_P1;SDS_P2;PMS_P1;PMS_P2;Temp;Humidity;BMP_temperature;BMP_pressure;BME280_temperature;BME280_humidity;BME280_pressure;Samples;Min_cycle;Max_cycle;Signal;HPM_P1;HPM_P2
2023/10/17 00:09:25;;;;;;;14.57;11.23;;;;;7.10;101344.00;;;;10329476;28;21101;-71
2023/10/17 00:14:35;;;;;;;19.93;11.60;;;;;7.20;101343.00;;;;10329566;28;20305;-72
2023/10/17 00:19:37;;;;;;;20.63;12.33;;;;;7.20;101343.00;;;;10329646;28;20284;-72
2023/10/17 00:24:39;;;;;;;16.13;11.23;;;;;7.20;101362.00;;;;10337601;28;20230;-72
2023/10/17 00:29:41;;;;;;;18.97;12.73;;;;;7.20;101382.00;;;;10335796;28;22251;-72
2023/10/17 00:34:46;;;;;;;20.70;12.90;;;;;7.20;101368.00;;;;10334904;28;20337;-72
2023/10/17 00:39:48;;;;;;;18.73;13.50;;;;;7.20;101361.00;;;;10334333;28;20211;-72
2023/10/17 00:44:50;;;;;;;22.80;13.13;;;;;7.20;101364.00;;;;10334768;28;20238;-72
2023/10/17 00:49:52;;;;;;;20.57;12.93;;;;;7.20;101347.00;;;;10334582;28;20248;-72
2023/10/17 00:54:59;;;;;;;24.53;14.67;;;;;7.20;101339.00;;;;10333600;28;20336;-72
2023/10/17 01:00:14;;;;;;;21.37;14.07;;;;;7.20;101336.00;;;;10316241;28;20214;-72
2023/10/17 01:05:16;;;;;;;21.73;15.13;;;;;7.20;101321.00;;;;10317013;28;20228;-72
2023/10/17 01:10:24;;;;;;;23.77;15.07;;;;;7.20;101326.00;;;;10333983;28;20311;-72
2023/10/17 01:15:29;;;;;;;26.70;15.90;;;;;7.20;101327.00;;;;10337195;28;20236;-72
2023/10/17 01:20:32;;;;;;;23.43;16.13;;;;;7.20;101314.00;;;;10335793;28;20252;-72
2023/10/17 01:25:35;;;;;;;27.23;16.83;;;;;7.10;101318.00;;;;10332474;28;20253;-72
2023/10/17 01:30:37;;;;;;;30.03;17.80;;;;;7.10;101317.00;;;;10367013;28;21045;-71
2023/10/17 01:35:44;;;;;;;27.93;18.20;;;;;7.10;101317.00;;;;10321094;28;20343;-71
2023/10/17 01:40:46;;;;;;;29.70;17.13;;;;;7.10;101312.00;;;;10340899;28;20245;-70
2023/10/17 01:45:50;;;;;;;38.77;20.23;;;;;7.10;101310.00;;;;10341512;28;20237;-72
2023/10/17 01:50:53;;;;;;;30.47;19.60;;;;;7.10;101311.00;;;;10334204;28;20218;-71
2023/10/17 01:56:06;;;;;;;36.77;21.10;;;;;7.20;101315.00;;;;10333502;28;20291;-71
2023/10/17 02:01:14;;;;;;;35.90;20.80;;;;;7.20;101300.00;;;;10332508;28;21004;-71
2023/10/17 02:06:16;;;;;;;39.00;22.37;;;;;7.20;101293.00;;;;10333670;28;20245;-71
2023/10/17 02:11:28;;;;;;;36.17;22.27;;;;;7.20;101271.00;;;;10334240;28;20225;-71
2023/10/17 02:16:34;;;;;;;35.50;22.00;;;;;7.20;101257.00;;;;10317803;28;21163;-71
2023/10/17 02:21:39;;;;;;;32.17;21.77;;;;;7.20;101278.00;;;;10331507;28;21641;-71
2023/10/17 02:26:54;;;;;;;37.70;22.80;;;;;7.20;101278.00;;;;10356919;28;20273;-71
2023/10/17 02:31:58;;;;;;;40.43;22.27;;;;;7.20;101265.00;;;;10333535;28;21492;-71
2023/10/17 02:37:01;;;;;;;31.53;20.63;;;;;7.20;101256.00;;;;10333837;28;21159;-71
2023/10/17 02:42:06;;;;;;;35.33;23.17;;;;;7.20;101244.00;;;;10334171;28;20213;-72
2023/10/17 02:47:15;;;;;;;34.77;21.77;;;;;7.20;101242.00;;;;10337117;28;20288;-72
2023/10/17 02:52:17;;;;;;;35.30;22.43;;;;;7.20;101240.00;;;;10337188;28;20215;-71
2023/10/17 02:57:20;;;;;;;34.10;21.17;;;;;7.20;101251.00;;;;10336536;28;20210;-72
2023/10/17 03:02:36;;;;;;;41.63;23.30;;;;;7.20;101250.00;;;;10333114;28;20956;-71
2023/10/17 03:07:39;;;;;;;33.10;21.07;;;;;7.20;101269.00;;;;10317920;28;20241;-71
2023/10/17 03:12:53;;;;;;;34.87;21.13;;;;;7.30;101292.00;;;;10336189;28;20210;-71
2023/10/17 03:18:00;;;;;;;31.50;20.70;;;;;7.30;101284.00;;;;10334987;28;20272;-72
2023/10/17 03:23:05;;;;;;;31.53;19.43;;;;;7.30;101289.00;;;;10334307;28;21818;-71
2023/10/17 03:28:15;;;;;;;33.37;18.93;;;;;7.30;101299.00;;;;10336872;28;20210;-72
2023/10/17 03:33:26;;;;;;;28.37;18.47;;;;;7.30;101291.00;;;;10336983;28;20218;-71
2023/10/17 03:38:31;;;;;;;31.70;17.67;;;;;7.20;101293.00;;;;10335016;28;20217;-72
2023/10/17 03:43:39;;;;;;;29.40;18.10;;;;;7.20;101285.00;;;;10334667;28;20229;-71
2023/10/17 03:48:56;;;;;;;30.97;18.70;;;;;7.20;101279.00;;;;10332687;28;20287;-71
2023/10/17 03:54:08;;;;;;;30.03;18.47;;;;;7.20;101277.00;;;;10323387;28;20205;-71
2023/10/17 04:04:25;;;;;;;25.87;17.27;;;;;7.20;101276.00;;;;10322155;28;21066;-71
2023/10/17 04:09:32;;;;;;;25.40;17.17;;;;;7.10;101265.00;;;;10323583;28;20214;-71
2023/10/17 04:14:34;;;;;;;26.60;16.87;;;;;7.20;101262.00;;;;10325195;28;20313;-72
2023/10/17 04:19:39;;;;;;;29.23;15.80;;;;;7.20;101263.00;;;;10322855;28;20728;-71
2023/10/17 04:24:46;;;;;;;25.43;16.00;;;;;7.20;101270.00;;;;10323817;28;20222;-72
2023/10/17 04:29:56;;;;;;;25.33;15.77;;;;;7.20;101281.00;;;;10324253;28;20210;-72
2023/10/17 04:35:01;;;;;;;25.13;14.90;;;;;7.20;101272.00;;;;10344036;28;20221;-71
2023/10/17 04:45:28;;;;;;;23.00;13.70;;;;;7.10;101257.00;;;;10316128;28;20324;-72
2023/10/17 04:50:40;;;;;;;22.37;13.27;;;;;7.10;101250.00;;;;10317664;28;20206;-71
2023/10/17 04:56:00;;;;;;;21.33;12.73;;;;;7.10;101233.00;;;;10302966;28;20300;-72
2023/10/17 06:26:46;;;;;;;15.30;7.93;;;;;7.10;101194.00;;;;10337777;28;20238;-72
2023/10/17 06:31:41;;;;;;;12.40;7.73;;;;;7.10;101194.00;;;;10335481;28;20280;-72
2023/10/17 06:36:44;;;;;;;11.60;7.50;;;;;7.20;101207.00;;;;10336665;28;20211;-72
2023/10/17 06:41:47;;;;;;;11.70;7.70;;;;;7.20;101203.00;;;;10337491;28;22289;-71
2023/10/17 06:46:55;;;;;;;9.73;7.13;;;;;7.20;101216.00;;;;10336855;28;20290;-72
2023/10/17 06:57:19;;;;;;;10.23;7.03;;;;;7.30;101225.00;;;;10336369;28;21063;-72
2023/10/17 07:02:29;;;;;;;8.67;6.77;;;;;7.50;101215.00;;;;10331884;28;20232;-71
2023/10/17 07:07:40;;;;;;;9.93;6.50;;;;;7.60;101220.00;;;;10332313;28;20326;-71
2023/10/17 07:12:47;;;;;;;8.53;7.00;;;;;7.80;101215.00;;;;10321371;28;20349;-72
2023/10/17 07:17:54;;;;;;;9.10;6.50;;;;;7.90;101206.00;;;;10328234;28;21020;-72
2023/10/17 07:22:57;;;;;;;9.47;6.40;;;;;8.00;101203.00;;;;10322605;28;20226;-71
2023/10/17 07:28:02;;;;;;;10.43;6.23;;;;;8.00;101205.00;;;;10312217;28;20226;-71
2023/10/17 07:33:05;;;;;;;12.70;6.17;;;;;8.10;101213.00;;;;10324209;28;20210;-71
2023/10/17 07:38:08;;;;;;;12.83;5.70;;;;;8.10;101213.00;;;;10326716;28;20688;-71
2023/10/17 07:43:10;;;;;;;10.20;6.07;;;;;8.20;101221.00;;;;10327372;28;20291;-72
2023/10/17 07:48:22;;;;;;;9.20;6.60;;;;;8.30;101239.00;;;;10324356;28;20207;-71
2023/10/17 07:53:26;;;;;;;10.67;5.77;;;;;8.40;101234.00;;;;10312726;28;20209;-71
2023/10/17 07:58:46;;;;;;;8.00;5.30;;;;;8.60;101234.00;;;;10326437;28;20222;-71
2023/10/17 08:03:57;;;;;;;6.10;4.87;;;;;8.80;101233.00;;;;10311921;28;20258;-71
2023/10/17 08:09:00;;;;;;;7.00;5.17;;;;;9.00;101227.00;;;;10353434;28;20198;-71
2023/10/17 08:14:06;;;;;;;8.73;4.90;;;;;9.20;101225.00;;;;10328496;28;20206;-71
2023/10/17 08:19:14;;;;;;;4.90;4.40;;;;;9.50;101228.00;;;;10330941;28;20232;-71
2023/10/17 08:24:26;;;;;;;5.47;4.90;;;;;9.60;101227.00;;;;10327574;28;20296;-71
2023/10/17 08:29:31;;;;;;;9.57;6.87;;;;;9.80;101229.00;;;;10315904;28;20291;-71
2023/10/17 08:34:42;;;;;;;8.47;4.83;;;;;9.90;101233.00;;;;10323532;28;20206;-72
2023/10/17 08:44:50;;;;;;;8.10;4.53;;;;;10.40;101232.00;;;;10320136;28;20222;-72
2023/10/17 08:49:55;;;;;;;10.70;4.27;;;;;10.40;101237.00;;;;10323080;28;20276;-71
2023/10/17 08:54:57;;;;;;;8.63;4.33;;;;;10.30;101233.00;;;;10318508;28;20238;-72
2023/10/17 09:00:23;;;;;;;8.17;3.87;;;;;10.10;101233.00;;;;10347759;28;20260;-72
2023/10/17 09:05:27;;;;;;;5.63;3.63;;;;;9.90;101224.00;;;;10325233;28;20290;-71
2023/10/17 09:10:41;;;;;;;7.80;3.93;;;;;9.80;101226.00;;;;10319178;28;21967;-72
2023/10/17 09:15:55;;;;;;;5.33;3.90;;;;;9.70;101225.00;;;;10323388;28;20206;-72
2023/10/17 09:21:03;;;;;;;6.40;4.40;;;;;10.00;101216.00;;;;10333411;28;20214;-72
2023/10/17 09:26:10;;;;;;;9.97;3.70;;;;;10.70;101223.00;;;;10323714;28;20265;-73
2023/10/17 09:31:13;;;;;;;7.77;3.70;;;;;11.10;101208.00;;;;10328067;28;20221;-73
2023/10/17 09:36:19;;;;;;;10.50;3.97;;;;;11.20;101210.00;;;;10312068;28;21366;-73
2023/10/17 09:41:21;;;;;;;5.43;3.20;;;;;11.40;101199.00;;;;10327884;28;20305;-72
2023/10/17 09:46:26;;;;;;;8.63;4.47;;;;;11.60;101200.00;;;;10327118;28;21865;-73
2023/10/17 09:51:35;;;;;;;5.70;3.10;;;;;11.70;101191.00;;;;10332273;28;20217;-72
2023/10/17 09:56:42;;;;;;;8.77;3.33;;;;;11.90;101186.00;;;;10330973;28;20213;-73
2023/10/17 10:01:46;;;;;;;4.33;3.40;;;;;12.00;101176.00;;;;10326552;28;20218;-73
2023/10/17 10:06:48;;;;;;;4.90;3.20;;;;;12.20;101185.00;;;;10331337;28;20230;-73
2023/10/17 10:11:50;;;;;;;4.80;3.30;;;;;12.30;101178.00;;;;10328446;28;20226;-72
2023/10/17 10:17:03;;;;;;;5.73;2.93;;;;;12.50;101166.00;;;;10311573;28;21927;-74
2023/10/17 10:22:06;;;;;;;5.40;3.17;;;;;12.70;101150.00;;;;10296776;28;20799;-73
2023/10/17 10:27:08;;;;;;;5.90;3.27;;;;;13.10;101148.00;;;;10326570;28;20950;-72
2023/10/17 10:32:37;;;;;;;3.33;2.60;;;;;13.40;101149.00;;;;10327219;28;20214;-72
2023/10/17 10:37:52;;;;;;;5.07;2.65;;;;;13.70;101141.00;;;;10324813;28;21329;-72
2023/10/17 10:42:59;;;;;;;4.32;2.80;;;;;14.00;101146.00;;;;10307241;28;20214;-72
2023/10/17 10:48:14;;;;;;;4.95;2.83;;;;;14.20;101140.00;;;;10320760;28;20311;-72
2023/10/17 10:53:21;;;;;;;3.72;2.42;;;;;14.60;101128.00;;;;10323509;28;20218;-72
2023/10/17 10:58:25;;;;;;;3.50;2.35;;;;;14.50;101115.00;;;;10317760;28;20214;-72
2023/10/17 11:03:26;;;;;;;3.88;2.10;;;;;14.70;101106.00;;;;10322284;28;20216;-71
2023/10/17 11:08:41;;;;;;;4.10;2.25;;;;;15.10;101088.00;;;;10296203;28;20342;-71
2023/10/17 11:13:49;;;;;;;3.53;2.78;;;;;15.20;101083.00;;;;10314624;28;20275;-71
2023/10/17 11:18:51;;;;;;;6.32;2.17;;;;;15.30;101068.00;;;;10312006;28;20368;-71
2023/10/17 11:24:04;;;;;;;4.50;2.03;;;;;15.10;101063.00;;;;10311474;28;20233;-71
2023/10/17 11:29:07;;;;;;;7.60;2.50;;;;;15.00;101055.00;;;;10313262;28;21066;-71
2023/10/17 11:34:15;;;;;;;8.00;2.70;;;;;15.00;101048.00;;;;10312593;28;20220;-71
2023/10/17 11:39:18;;;;;;;5.05;2.03;;;;;15.10;101036.00;;;;10314098;28;20233;-71
2023/10/17 11:44:25;;;;;;;2.85;1.80;;;;;15.40;101024.00;;;;10312293;28;20226;-71
2023/10/17 11:49:31;;;;;;;2.10;1.67;;;;;15.60;101022.00;;;;10293972;28;20277;-71
2023/10/17 11:55:11;;;;;;;3.17;1.80;;;;;15.90;101016.00;;;;10310858;28;21232;-72
2023/10/17 12:05:18;;;;;;;4.57;1.80;;;;;16.10;100996.00;;;;10318925;28;20226;-71
2023/10/17 12:10:21;;;;;;;3.15;1.63;;;;;16.30;100992.00;;;;10314529;28;20211;-71
2023/10/17 12:15:24;;;;;;;7.38;2.00;;;;;16.30;100984.00;;;;10314104;28;20357;-71
2023/10/17 12:20:27;;;;;;;2.13;1.60;;;;;16.10;100973.00;;;;10311415;28;20345;-71
2023/10/17 12:25:32;;;;;;;4.35;1.58;;;;;16.10;100967.00;;;;10314847;28;20225;-71
2023/10/17 12:30:41;;;;;;;3.53;1.73;;;;;16.10;100968.00;;;;10315108;28;20202;-71
2023/10/17 12:35:46;;;;;;;3.15;1.35;;;;;15.90;100962.00;;;;10311192;28;20206;-71
2023/10/17 12:40:48;;;;;;;3.70;1.92;;;;;15.80;100961.00;;;;10313114;28;20210;-71
2023/10/17 12:45:54;;;;;;;3.55;1.92;;;;;15.70;100955.00;;;;10315156;28;20923;-71
2023/10/17 12:50:56;;;;;;;1.50;1.40;;;;;15.60;100951.00;;;;10315862;28;20865;-71
2023/10/17 12:55:58;;;;;;;3.47;1.63;;;;;15.50;100960.00;;;;10314532;28;20226;-71
2023/10/17 13:01:00;;;;;;;4.28;1.50;;;;;15.30;100947.00;;;;10313974;28;20858;-71
2023/10/17 13:06:03;;;;;;;3.45;1.50;;;;;15.00;100940.00;;;;10283560;28;20234;-71
2023/10/17 13:11:06;;;;;;;4.00;1.48;;;;;14.90;100931.00;;;;10296831;28;20272;-71
2023/10/17 13:16:10;;;;;;;3.70;2.13;;;;;14.90;100932.00;;;;10282243;28;20308;-71
2023/10/17 13:21:14;;;;;;;7.03;2.22;;;;;14.60;100931.00;;;;10302343;28;20214;-72
2023/10/17 13:26:19;;;;;;;3.42;1.50;;;;;14.50;100919.00;;;;10333643;28;20241;-73
2023/10/17 13:31:21;;;;;;;4.97;1.60;;;;;14.50;100914.00;;;;10333935;28;20312;-73
2023/10/17 13:36:23;;;;;;;4.13;1.50;;;;;14.40;100908.00;;;;10334697;28;20222;-73
2023/10/17 13:41:25;;;;;;;2.28;1.38;;;;;14.20;100896.00;;;;10330697;28;20217;-72
2023/10/17 13:46:27;;;;;;;4.28;1.60;;;;;14.00;100908.00;;;;10297955;28;20261;-72
2023/10/17 13:51:34;;;;;;;3.08;2.28;;;;;14.00;100907.00;;;;10311012;28;20213;-72
2023/10/17 13:56:36;;;;;;;2.15;1.67;;;;;14.00;100893.00;;;;10337708;28;20218;-72
2023/10/17 14:01:41;;;;;;;4.68;1.65;;;;;14.00;100887.00;;;;10309922;28;21848;-72
2023/10/17 14:06:44;;;;;;;3.92;1.77;;;;;13.90;100883.00;;;;10328782;28;20321;-73
2023/10/17 14:11:47;;;;;;;2.05;1.35;;;;;13.70;100886.00;;;;10314726;28;20217;-72
2023/10/17 14:16:50;;;;;;;2.78;1.33;;;;;13.50;100896.00;;;;10334449;28;20337;-72
2023/10/17 14:22:08;;;;;;;2.40;1.40;;;;;13.30;100874.00;;;;10313432;28;20214;-73
2023/10/17 14:27:12;;;;;;;3.50;1.60;;;;;13.30;100860.00;;;;10337050;28;20669;-71
2023/10/17 14:32:19;;;;;;;2.30;1.40;;;;;13.30;100858.00;;;;10334231;28;20214;-73
2023/10/17 14:37:23;;;;;;;2.58;1.38;;;;;13.20;100856.00;;;;10340071;28;20288;-73
2023/10/17 14:42:27;;;;;;;2.90;1.45;;;;;13.10;100853.00;;;;10346438;28;21267;-73
2023/10/17 14:47:29;;;;;;;3.65;1.70;;;;;13.00;100839.00;;;;10322700;28;20908;-73
2023/10/17 14:52:34;;;;;;;3.13;1.67;;;;;12.90;100844.00;;;;10321220;28;21137;-73
2023/10/17 14:57:36;;;;;;;2.73;1.50;;;;;12.90;100839.00;;;;10341207;28;20295;-73
2023/10/17 15:02:44;;;;;;;3.47;1.80;;;;;12.80;100847.00;;;;10323419;28;20210;-73
2023/10/17 15:07:46;;;;;;;3.67;1.98;;;;;12.90;100845.00;;;;10336672;28;20722;-72
2023/10/17 15:12:50;;;;;;;5.77;1.47;;;;;12.70;100827.00;;;;10338861;28;20248;-73
2023/10/17 15:17:52;;;;;;;3.67;1.63;;;;;12.60;100838.00;;;;10303166;28;20217;-73
2023/10/17 15:22:54;;;;;;;4.40;1.60;;;;;12.40;100836.00;;;;10336899;28;21928;-73
2023/10/17 15:27:56;;;;;;;3.53;1.67;;;;;12.30;100830.00;;;;10320956;28;20300;-73
2023/10/17 15:32:58;;;;;;;2.43;1.50;;;;;12.20;100826.00;;;;10321483;28;20225;-73
2023/10/17 15:38:01;;;;;;;1.93;1.37;;;;;12.10;100833.00;;;;10320519;28;20214;-73
2023/10/17 15:43:03;;;;;;;3.97;1.57;;;;;12.00;100823.00;;;;10328673;28;20217;-71
2023/10/17 15:48:05;;;;;;;1.97;1.77;;;;;12.00;100828.00;;;;10304283;28;20284;-72
2023/10/17 15:53:09;;;;;;;2.40;1.50;;;;;11.90;100843.00;;;;10321705;28;20222;-71
2023/10/17 15:58:11;;;;;;;3.17;1.33;;;;;11.70;100837.00;;;;10322617;28;20269;-71
2023/10/17 16:03:15;;;;;;;3.03;1.70;;;;;11.70;100837.00;;;;10327139;28;21957;-71
2023/10/17 16:08:21;;;;;;;2.50;1.50;;;;;11.50;100828.00;;;;10319464;28;20225;-72
2023/10/17 16:13:23;;;;;;;3.10;1.50;;;;;11.40;100831.00;;;;10319372;28;20222;-71
2023/10/17 16:18:26;;;;;;;3.93;1.43;;;;;11.20;100844.00;;;;10319434;28;20596;-71
2023/10/17 16:23:29;;;;;;;4.47;1.97;;;;;11.00;100844.00;;;;10318116;28;20214;-71
2023/10/17 16:28:32;;;;;;;3.53;2.17;;;;;10.80;100834.00;;;;10320706;28;20689;-71
2023/10/17 16:33:34;;;;;;;4.07;2.10;;;;;10.70;100844.00;;;;10320338;28;20212;-71
2023/10/17 16:38:38;;;;;;;2.20;1.67;;;;;10.60;100837.00;;;;10319203;28;20209;-70
2023/10/17 16:43:41;;;;;;;1.73;1.63;;;;;10.40;100844.00;;;;10320740;28;20259;-72
2023/10/17 16:48:43;;;;;;;4.67;1.70;;;;;10.30;100855.00;;;;10318415;28;20230;-71
2023/10/17 16:53:45;;;;;;;6.67;1.90;;;;;10.10;100850.00;;;;10324154;28;20301;-71
2023/10/17 16:58:48;;;;;;;2.87;1.50;;;;;10.00;100860.00;;;;10322515;28;20336;-71
2023/10/17 17:03:49;;;;;;;2.40;1.80;;;;;9.90;100867.00;;;;10320870;28;20213;-71
2023/10/17 17:08:57;;;;;;;3.17;1.90;;;;;9.70;100878.00;;;;10320181;28;20672;-71
2023/10/17 17:13:59;;;;;;;3.63;2.03;;;;;9.60;100869.00;;;;10326264;28;20364;-71
2023/10/17 17:19:01;;;;;;;5.93;1.70;;;;;9.50;100874.00;;;;10320336;28;20304;-71
2023/10/17 17:24:10;;;;;;;3.23;1.90;;;;;9.40;100867.00;;;;10331562;28;20719;-72
2023/10/17 17:29:12;;;;;;;5.63;2.03;;;;;9.20;100875.00;;;;10320983;28;20218;-70
2023/10/17 17:34:14;;;;;;;4.53;1.90;;;;;9.10;100879.00;;;;10322257;28;20214;-71
2023/10/17 17:39:21;;;;;;;6.90;2.10;;;;;9.00;100880.00;;;;10320957;28;21247;-71
2023/10/17 17:44:23;;;;;;;9.93;5.67;;;;;9.00;100882.00;;;;10323406;28;20308;-71
2023/10/17 17:49:27;;;;;;;10.20;7.87;;;;;8.90;100880.00;;;;10303631;28;20222;-72
2023/10/17 17:54:29;;;;;;;9.67;5.57;;;;;8.80;100877.00;;;;10317041;28;20348;-71
2023/10/17 17:59:34;;;;;;;4.67;3.37;;;;;8.70;100875.00;;;;10327980;28;20221;-70
2023/10/17 18:04:36;;;;;;;5.40;3.50;;;;;8.70;100871.00;;;;10316017;28;21025;-72
2023/10/17 18:09:39;;;;;;;5.43;3.10;;;;;8.60;100864.00;;;;10335947;28;20284;-72
2023/10/17 18:14:42;;;;;;;17.33;12.20;;;;;8.50;100854.00;;;;10323829;28;20315;-72
2023/10/17 18:19:44;;;;;;;9.07;3.40;;;;;8.40;100853.00;;;;10340618;28;20245;-72
2023/10/17 18:24:46;;;;;;;6.20;4.20;;;;;8.40;100859.00;;;;10340139;28;20727;-72
2023/10/17 18:29:50;;;;;;;4.77;3.93;;;;;8.30;100854.00;;;;10341550;28;22068;-72
2023/10/17 18:34:52;;;;;;;5.20;3.60;;;;;8.20;100852.00;;;;10347227;28;20213;-72
2023/10/17 18:39:54;;;;;;;4.50;2.87;;;;;8.20;100846.00;;;;10323232;28;20210;-72
2023/10/17 18:44:56;;;;;;;6.27;3.00;;;;;8.20;100844.00;;;;10320620;28;20230;-72
2023/10/17 18:50:15;;;;;;;4.40;2.60;;;;;8.10;100830.00;;;;10337986;28;20218;-72
2023/10/17 18:55:17;;;;;;;4.33;2.80;;;;;8.10;100818.00;;;;10321006;28;20217;-72
2023/10/17 19:00:19;;;;;;;3.23;2.67;;;;;8.00;100812.00;;;;10320511;28;20221;-72
2023/10/17 19:05:21;;;;;;;6.27;2.40;;;;;8.00;100809.00;;;;10338623;28;20308;-72
2023/10/17 19:10:23;;;;;;;5.23;2.63;;;;;8.00;100811.00;;;;10337459;28;20300;-71
2023/10/17 19:15:27;;;;;;;6.47;5.67;;;;;8.00;100810.00;;;;10309103;28;20218;-71
2023/10/17 19:20:30;;;;;;;5.10;4.10;;;;;7.90;100809.00;;;;10305220;28;20221;-71
2023/10/17 19:25:31;;;;;;;4.23;2.87;;;;;7.90;100799.00;;;;10308953;28;20276;-71
2023/10/17 19:30:35;;;;;;;3.27;2.80;;;;;7.80;100793.00;;;;10324488;28;20257;-71
2023/10/17 19:35:38;;;;;;;3.73;2.80;;;;;7.80;100803.00;;;;10292635;28;20294;-71
2023/10/17 19:40:39;;;;;;;7.70;3.00;;;;;7.70;100800.00;;;;10324790;28;20312;-71
2023/10/17 19:45:41;;;;;;;6.07;3.00;;;;;7.70;100798.00;;;;10323577;28;20218;-71
2023/10/17 19:50:44;;;;;;;5.43;3.10;;;;;7.60;100801.00;;;;10322566;28;20206;-72
2023/10/17 19:55:47;;;;;;;5.77;3.60;;;;;7.50;100801.00;;;;10304913;28;20333;-71
2023/10/17 20:00:50;;;;;;;5.00;3.33;;;;;7.40;100807.00;;;;10304438;28;20260;-71
2023/10/17 20:05:52;;;;;;;5.53;3.30;;;;;7.30;100807.00;;;;10303012;28;21813;-71
2023/10/17 20:11:05;;;;;;;9.20;5.33;;;;;7.30;100800.00;;;;10278597;28;20313;-71
2023/10/17 20:16:10;;;;;;;5.63;3.53;;;;;7.20;100793.00;;;;10298239;28;21695;-71
2023/10/17 20:21:13;;;;;;;5.23;4.27;;;;;7.20;100790.00;;;;10314503;28;20213;-72
2023/10/17 20:26:14;;;;;;;8.17;3.40;;;;;7.20;100783.00;;;;10324421;28;21785;-72
2023/10/17 20:31:16;;;;;;;5.30;3.30;;;;;7.10;100780.00;;;;10324066;28;20308;-72
2023/10/17 20:36:29;;;;;;;6.53;4.07;;;;;7.10;100773.00;;;;10329940;28;20264;-72
2023/10/17 20:41:33;;;;;;;7.10;3.47;;;;;7.10;100767.00;;;;10312787;28;20804;-72
2023/10/17 20:46:35;;;;;;;7.07;4.20;;;;;7.00;100760.00;;;;10331378;28;20327;-72
2023/10/17 20:51:41;;;;;;;6.10;3.77;;;;;7.00;100760.00;;;;10306135;28;20240;-72
2023/10/17 20:56:43;;;;;;;4.20;3.80;;;;;6.90;100761.00;;;;10331676;28;20206;-72
2023/10/17 21:01:45;;;;;;;5.63;3.60;;;;;6.80;100759.00;;;;10329511;28;20343;-72
2023/10/17 21:06:50;;;;;;;8.03;3.73;;;;;6.80;100741.00;;;;10311197;28;20226;-72
2023/10/17 21:11:52;;;;;;;8.47;3.80;;;;;6.70;100742.00;;;;10329995;28;20206;-72
2023/10/17 21:16:54;;;;;;;6.00;3.80;;;;;6.70;100730.00;;;;10332493;28;20237;-72
2023/10/17 21:21:58;;;;;;;7.17;5.73;;;;;6.60;100731.00;;;;10326023;28;20277;-72
2023/10/17 21:27:00;;;;;;;5.10;4.43;;;;;6.60;100718.00;;;;10322651;28;20327;-72
2023/10/17 21:32:02;;;;;;;8.07;3.97;;;;;6.60;100710.00;;;;10314679;28;20218;-72
2023/10/17 21:37:04;;;;;;;6.33;4.07;;;;;6.50;100711.00;;;;10331516;28;20213;-72
2023/10/17 21:42:10;;;;;;;7.37;4.53;;;;;6.50;100706.00;;;;10314306;28;20217;-72
2023/10/17 21:47:12;;;;;;;6.67;3.53;;;;;6.60;100700.00;;;;10339271;28;20218;-72
2023/10/17 21:52:14;;;;;;;6.50;3.80;;;;;6.60;100696.00;;;;10322272;28;20202;-72
2023/10/17 21:57:16;;;;;;;5.03;3.73;;;;;6.70;100679.00;;;;10320114;28;20217;-72
2023/10/17 22:02:18;;;;;;;4.97;3.50;;;;;6.70;100675.00;;;;10336727;28;20943;-72
2023/10/17 22:07:20;;;;;;;6.93;3.87;;;;;6.70;100665.00;;;;10338623;28;20218;-72
2023/10/17 22:12:23;;;;;;;5.27;3.67;;;;;6.70;100664.00;;;;10333604;28;20202;-72
2023/10/17 22:17:24;;;;;;;7.00;4.03;;;;;6.70;100660.00;;;;10336524;28;21246;-72
2023/10/17 22:22:28;;;;;;;7.57;4.27;;;;;6.70;100650.00;;;;10335937;28;21042;-72
2023/10/17 22:27:29;;;;;;;6.67;3.87;;;;;6.70;100646.00;;;;10302660;28;20344;-72
2023/10/17 22:32:34;;;;;;;5.50;4.37;;;;;6.70;100652.00;;;;10339355;28;21044;-72
2023/10/17 22:37:37;;;;;;;5.87;4.00;;;;;6.60;100651.00;;;;10300096;28;20217;-72
2023/10/17 22:42:39;;;;;;;5.87;3.90;;;;;6.60;100644.00;;;;10341413;28;21752;-71
2023/10/17 22:47:41;;;;;;;7.10;4.17;;;;;6.60;100638.00;;;;10332880;28;20741;-72
2023/10/17 22:52:43;;;;;;;5.97;3.97;;;;;6.60;100636.00;;;;10324854;28;20329;-72
2023/10/17 22:57:46;;;;;;;7.13;4.43;;;;;6.50;100622.00;;;;10342744;28;20637;-71
2023/10/17 23:02:48;;;;;;;7.17;4.53;;;;;6.50;100625.00;;;;10305704;28;20221;-71
2023/10/17 23:07:50;;;;;;;5.50;4.27;;;;;6.50;100617.00;;;;10324923;28;20276;-71
2023/10/17 23:12:52;;;;;;;6.33;5.27;;;;;6.40;100614.00;;;;10343236;28;20241;-71
2023/10/17 23:17:54;;;;;;;6.33;4.33;;;;;6.40;100611.00;;;;10342369;28;21143;-71
2023/10/17 23:22:57;;;;;;;8.63;4.27;;;;;6.30;100602.00;;;;10343655;28;20222;-71
2023/10/17 23:27:59;;;;;;;7.07;4.33;;;;;6.30;100593.00;;;;10343060;28;20769;-71
2023/10/17 23:33:03;;;;;;;8.53;4.30;;;;;6.30;100582.00;;;;10325373;28;20676;-71
2023/10/17 23:38:05;;;;;;;8.90;4.70;;;;;6.20;100593.00;;;;10325527;28;20198;-71
2023/10/17 23:43:08;;;;;;;7.43;5.20;;;;;6.20;100580.00;;;;10326203;28;20202;-71
2023/10/17 23:48:16;;;;;;;9.50;4.40;;;;;6.20;100582.00;;;;10343898;28;20218;-71
2023/10/17 23:53:21;;;;;;;6.10;4.43;;;;;6.20;100573.00;;;;10326695;28;20190;-71
2023/10/17 23:58:23;;;;;;;6.10;4.63;;;;;6.20;100562.00;;;;10302413;28;22345;-71
